Airfield :
LOGIN :

Register | Disclaimer

   EN    FR    IT 

 










Legend :    VFR   Marginal VFR   IFR   Intensive IFR   Very Intensive IFR
Visi :
Ceiling :
>= 8 km
>= 3000ft
5 to 8 km
1000 to 3000 ft
1500m to 5 km
500 to 1000 ft
800 to 1500m
200 to 500 ft
< 800m
< 200 ft
Symbols :   Thunderstorms  Fog  Heavy snow  Heavy precipitations  Wind > 20 kt
SIGMETs :     Misc.  Thunderstorms  Icing  Turbulence  Mountain Waves  Volcanic Ashes






- Airport Elevation : 791 ft
- IATA code : KRK


EPKK - Krakow-Balice

CURRENT METAR :
  • 011700Z 04005KT CAVOK M02/M05 Q1021

EXPIRED METARs :
  • 011630Z 04005KT CAVOK M03/M05 Q1021 R25/19//95
  • 011600Z 03006KT CAVOK M01/M04 Q1021 R25/19//95
  • 011530Z 02005KT 360V070 CAVOK M00/M05 Q1021 R25/19//95
  • 011500Z 08002KT CAVOK 00/M05 Q1021 R25/19//95

TAF TAF EPKK
Valid from the 01 at 15:00 until the 02 at 15:00 UTC


011430Z 0115/0215 VRB02KT CAVOK
BECMG 0121/0124 1400 BR
PROB40 0200/0207 0400 FZFG BKN003
TEMPO 0206/0210 BKN008
BECMG 0208/0210 07010KT 9999 BKN013



MET'MAP, your aeronautical weather chart ! - Copyright ORBIFLY December 2007 - Disclaimer

ORBIFLY MET'MAP TEAM :

Programming & Development : Alexandra Zaïnal
Concept & original design : Baudouin d'Aumeries
Assistance for programming : Marc-Olivier Méhu
Technical & hardware support : Manuel Goepfert

Contact : metmap@orbifly.com




SOURCES & CREDITS :

   NOAA